sensor_id;sensor_type;location;lat;lon;timestamp;pressure;altitude;pressure_sealevel;temperature;humidity
45525;BME280;31437;58.350;13.828;2023-02-12T00:02:16;102010.41;;;-0.25;100.00
45525;BME280;31437;58.350;13.828;2023-02-12T00:04:43;102018.31;;;-0.17;100.00
45525;BME280;31437;58.350;13.828;2023-02-12T00:07:08;102010.63;;;-0.14;100.00
45525;BME280;31437;58.350;13.828;2023-02-12T00:09:34;102009.81;;;-0.12;100.00
45525;BME280;31437;58.350;13.828;2023-02-12T00:12:00;101999.50;;;-0.12;100.00
45525;BME280;31437;58.350;13.828;2023-02-12T00:14:25;101997.84;;;-0.08;100.00
45525;BME280;31437;58.350;13.828;2023-02-12T00:16:50;101996.19;;;-0.05;100.00
45525;BME280;31437;58.350;13.828;2023-02-12T00:19:16;101997.16;;;0.02;100.00
45525;BME280;31437;58.350;13.828;2023-02-12T00:21:41;101985.09;;;0.03;100.00
45525;BME280;31437;58.350;13.828;2023-02-12T00:24:06;101976.44;;;-0.01;100.00
45525;BME280;31437;58.350;13.828;2023-02-12T00:26:32;101967.03;;;0.01;100.00
45525;BME280;31437;58.350;13.828;2023-02-12T00:28:57;101967.09;;;0.04;100.00
45525;BME280;31437;58.350;13.828;2023-02-12T00:31:24;101970.63;;;0.11;100.00
45525;BME280;31437;58.350;13.828;2023-02-12T00:33:50;101962.13;;;0.15;100.00
45525;BME280;31437;58.350;13.828;2023-02-12T00:36:17;101967.38;;;0.21;100.00
45525;BME280;31437;58.350;13.828;2023-02-12T00:38:42;101965.72;;;0.26;100.00
45525;BME280;31437;58.350;13.828;2023-02-12T00:41:08;101961.50;;;0.30;100.00
45525;BME280;31437;58.350;13.828;2023-02-12T00:43:33;101962.41;;;0.35;100.00
45525;BME280;31437;58.350;13.828;2023-02-12T00:45:59;101971.09;;;0.38;100.00
45525;BME280;31437;58.350;13.828;2023-02-12T00:48:24;101959.16;;;0.45;100.00
45525;BME280;31437;58.350;13.828;2023-02-12T00:50:49;101969.53;;;0.50;100.00
45525;BME280;31437;58.350;13.828;2023-02-12T00:53:15;101972.16;;;0.53;100.00
45525;BME280;31437;58.350;13.828;2023-02-12T00:55:40;101973.88;;;0.52;100.00
45525;BME280;31437;58.350;13.828;2023-02-12T00:58:05;101970.47;;;0.53;100.00
45525;BME280;31437;58.350;13.828;2023-02-12T01:00:31;101959.25;;;0.51;100.00
45525;BME280;31437;58.350;13.828;2023-02-12T01:02:56;101960.16;;;0.53;100.00
45525;BME280;31437;58.350;13.828;2023-02-12T01:05:22;101958.44;;;0.54;100.00
45525;BME280;31437;58.350;13.828;2023-02-12T01:07:51;101960.19;;;0.56;100.00
45525;BME280;31437;58.350;13.828;2023-02-12T01:10:16;101956.75;;;0.57;100.00
45525;BME280;31437;58.350;13.828;2023-02-12T01:12:42;101949.00;;;0.57;100.00
45525;BME280;31437;58.350;13.828;2023-02-12T01:15:07;101954.19;;;0.57;100.00
45525;BME280;31437;58.350;13.828;2023-02-12T01:17:35;101945.47;;;0.52;100.00
45525;BME280;31437;58.350;13.828;2023-02-12T01:20:01;101945.38;;;0.44;100.00
45525;BME280;31437;58.350;13.828;2023-02-12T01:22:26;101947.88;;;0.38;100.00
45525;BME280;31437;58.350;13.828;2023-02-12T01:24:52;101937.41;;;0.32;100.00
45525;BME280;31437;58.350;13.828;2023-02-12T01:27:17;101943.34;;;0.25;100.00
45525;BME280;31437;58.350;13.828;2023-02-12T01:29:42;101938.09;;;0.20;100.00
45525;BME280;31437;58.350;13.828;2023-02-12T01:32:10;101931.22;;;0.19;100.00
45525;BME280;31437;58.350;13.828;2023-02-12T01:34:36;101918.25;;;0.16;100.00
45525;BME280;31437;58.350;13.828;2023-02-12T01:37:01;101919.09;;;0.15;100.00
45525;BME280;31437;58.350;13.828;2023-02-12T01:39:26;101920.78;;;0.13;100.00
45525;BME280;31437;58.350;13.828;2023-02-12T01:41:52;101924.19;;;0.11;100.00
45525;BME280;31437;58.350;13.828;2023-02-12T01:44:18;101922.47;;;0.10;100.00
45525;BME280;31437;58.350;13.828;2023-02-12T01:46:45;101926.75;;;0.11;100.00
45525;BME280;31437;58.350;13.828;2023-02-12T01:49:12;101927.56;;;0.08;100.00
45525;BME280;31437;58.350;13.828;2023-02-12T01:51:38;101918.91;;;0.05;100.00
45525;BME280;31437;58.350;13.828;2023-02-12T01:54:05;101908.50;;;-0.02;100.00
45525;BME280;31437;58.350;13.828;2023-02-12T01:56:32;101909.31;;;-0.06;100.00
45525;BME280;31437;58.350;13.828;2023-02-12T01:58:57;101917.06;;;-0.04;100.00
45525;BME280;31437;58.350;13.828;2023-02-12T02:01:24;101912.72;;;-0.07;100.00
45525;BME280;31437;58.350;13.828;2023-02-12T02:03:51;101911.03;;;-0.05;100.00
45525;BME280;31437;58.350;13.828;2023-02-12T02:06:28;101917.91;;;-0.04;100.00
45525;BME280;31437;58.350;13.828;2023-02-12T02:08:55;101924.84;;;-0.01;100.00
45525;BME280;31437;58.350;13.828;2023-02-12T02:11:21;101932.56;;;-0.03;100.00
45525;BME280;31437;58.350;13.828;2023-02-12T02:14:05;101948.91;;;-0.02;100.00
45525;BME280;31437;58.350;13.828;2023-02-12T02:16:56;101950.66;;;-0.01;100.00
45525;BME280;31437;58.350;13.828;2023-02-12T02:19:43;101954.94;;;-0.02;100.00
45525;BME280;31437;58.350;13.828;2023-02-12T02:24:46;101938.59;;;-0.02;100.00
45525;BME280;31437;58.350;13.828;2023-02-12T02:32:12;101957.44;;;-0.06;100.00
45525;BME280;31437;58.350;13.828;2023-02-12T02:37:14;101954.75;;;-0.12;100.00
45525;BME280;31437;58.350;13.828;2023-02-12T02:39:49;101961.63;;;-0.13;100.00
45525;BME280;31437;58.350;13.828;2023-02-12T02:44:46;101960.75;;;-0.13;100.00
45525;BME280;31437;58.350;13.828;2023-02-12T02:47:13;101957.28;;;-0.15;100.00
45525;BME280;31437;58.350;13.828;2023-02-12T02:49:43;101958.97;;;-0.17;100.00
45525;BME280;31437;58.350;13.828;2023-02-12T02:52:17;101948.59;;;-0.20;100.00
45525;BME280;31437;58.350;13.828;2023-02-12T02:54:45;101945.97;;;-0.22;100.00
45525;BME280;31437;58.350;13.828;2023-02-12T02:57:15;101951.13;;;-0.24;100.00
45525;BME280;31437;58.350;13.828;2023-02-12T02:59:42;101959.69;;;-0.26;100.00
45525;BME280;31437;58.350;13.828;2023-02-12T03:04:42;101968.97;;;-0.34;100.00
45525;BME280;31437;58.350;13.828;2023-02-12T03:07:20;101967.19;;;-0.37;100.00
45525;BME280;31437;58.350;13.828;2023-02-12T03:09:53;101965.47;;;-0.36;100.00
45525;BME280;31437;58.350;13.828;2023-02-12T03:12:26;101971.50;;;-0.37;100.00
45525;BME280;31437;58.350;13.828;2023-02-12T03:17:39;101976.59;;;-0.40;100.00
45525;BME280;31437;58.350;13.828;2023-02-12T03:20:08;101981.75;;;-0.40;100.00
45525;BME280;31437;58.350;13.828;2023-02-12T03:22:38;101964.56;;;-0.38;100.00
45525;BME280;31437;58.350;13.828;2023-02-12T03:27:35;101970.75;;;-0.30;100.00
45525;BME280;31437;58.350;13.828;2023-02-12T03:30:02;101974.25;;;-0.28;100.00
45525;BME280;31437;58.350;13.828;2023-02-12T03:35:08;101962.19;;;-0.29;100.00
45525;BME280;31437;58.350;13.828;2023-02-12T03:37:39;101972.53;;;-0.28;100.00
45525;BME280;31437;58.350;13.828;2023-02-12T03:42:33;101995.94;;;-0.17;100.00
45525;BME280;31437;58.350;13.828;2023-02-12T03:45:06;101992.56;;;-0.14;100.00
45525;BME280;31437;58.350;13.828;2023-02-12T03:47:38;102002.88;;;-0.14;100.00
45525;BME280;31437;58.350;13.828;2023-02-12T03:50:12;102003.75;;;-0.12;100.00
45525;BME280;31437;58.350;13.828;2023-02-12T03:52:39;102002.03;;;-0.13;100.00
45525;BME280;31437;58.350;13.828;2023-02-12T03:55:05;102016.66;;;-0.12;100.00
45525;BME280;31437;58.350;13.828;2023-02-12T03:57:33;102018.41;;;-0.11;100.00
45525;BME280;31437;58.350;13.828;2023-02-12T04:00:03;102020.09;;;-0.13;100.00
45525;BME280;31437;58.350;13.828;2023-02-12T04:02:28;102017.41;;;-0.19;100.00
45525;BME280;31437;58.350;13.828;2023-02-12T04:04:54;102013.09;;;-0.20;100.00
45525;BME280;31437;58.350;13.828;2023-02-12T04:07:19;102017.34;;;-0.22;100.00
45525;BME280;31437;58.350;13.828;2023-02-12T04:09:44;102028.56;;;-0.19;100.00
45525;BME280;31437;58.350;13.828;2023-02-12T04:22:38;102048.63;;;-0.04;100.00
45525;BME280;31437;58.350;13.828;2023-02-12T04:25:10;102068.59;;;0.05;100.00
45525;BME280;31437;58.350;13.828;2023-02-12T04:30:13;102068.00;;;0.19;100.00
45525;BME280;31437;58.350;13.828;2023-02-12T04:32:45;102072.25;;;0.17;100.00
45525;BME280;31437;58.350;13.828;2023-02-12T04:37:54;102105.09;;;0.25;100.00
45525;BME280;31437;58.350;13.828;2023-02-12T04:40:23;102108.66;;;0.30;100.00
45525;BME280;31437;58.350;13.828;2023-02-12T04:42:49;102107.88;;;0.35;100.00
45525;BME280;31437;58.350;13.828;2023-02-12T04:45:18;102124.41;;;0.45;100.00
45525;BME280;31437;58.350;13.828;2023-02-12T04:47:44;102133.19;;;0.55;100.00
45525;BME280;31437;58.350;13.828;2023-02-12T04:50:10;102143.63;;;0.61;100.00
45525;BME280;31437;58.350;13.828;2023-02-12T04:52:35;102149.81;;;0.71;100.00
45525;BME280;31437;58.350;13.828;2023-02-12T04:55:00;102162.88;;;0.78;100.00
45525;BME280;31437;58.350;13.828;2023-02-12T04:57:26;102151.84;;;0.87;100.00
45525;BME280;31437;58.350;13.828;2023-02-12T04:59:51;102157.06;;;0.90;100.00
45525;BME280;31437;58.350;13.828;2023-02-12T05:02:16;102160.50;;;0.89;100.00
45525;BME280;31437;58.350;13.828;2023-02-12T05:04:42;102170.88;;;0.92;100.00
45525;BME280;31437;58.350;13.828;2023-02-12T05:07:07;102154.53;;;0.92;100.00
45525;BME280;31437;58.350;13.828;2023-02-12T05:09:32;102171.75;;;0.94;100.00
45525;BME280;31437;58.350;13.828;2023-02-12T05:11:57;102170.91;;;0.94;100.00
45525;BME280;31437;58.350;13.828;2023-02-12T05:14:23;102172.63;;;0.93;100.00
45525;BME280;31437;58.350;13.828;2023-02-12T05:16:48;102171.75;;;0.93;100.00
45525;BME280;31437;58.350;13.828;2023-02-12T05:19:14;102159.75;;;0.96;100.00
45525;BME280;31437;58.350;13.828;2023-02-12T05:21:39;102162.34;;;0.96;100.00
45525;BME280;31437;58.350;13.828;2023-02-12T05:24:04;102159.78;;;0.98;100.00
45525;BME280;31437;58.350;13.828;2023-02-12T05:26:30;102164.97;;;0.99;100.00
45525;BME280;31437;58.350;13.828;2023-02-12T05:28:55;102164.97;;;0.99;100.00
45525;BME280;31437;58.350;13.828;2023-02-12T05:31:20;102164.97;;;0.98;100.00
45525;BME280;31437;58.350;13.828;2023-02-12T05:33:46;102164.97;;;0.99;100.00
45525;BME280;31437;58.350;13.828;2023-02-12T05:36:14;102169.31;;;1.00;100.00
45525;BME280;31437;58.350;13.828;2023-02-12T05:38:40;102170.19;;;1.01;100.00
45525;BME280;31437;58.350;13.828;2023-02-12T05:41:07;102177.94;;;1.01;100.00
45525;BME280;31437;58.350;13.828;2023-02-12T05:43:32;102173.59;;;1.00;100.00
45525;BME280;31437;58.350;13.828;2023-02-12T05:46:01;102177.88;;;0.99;100.00
45525;BME280;31437;58.350;13.828;2023-02-12T05:48:27;102186.50;;;0.98;100.00
45525;BME280;31437;58.350;13.828;2023-02-12T05:50:53;102178.69;;;0.95;100.00
45525;BME280;31437;58.350;13.828;2023-02-12T05:53:18;102187.25;;;0.93;100.00
45525;BME280;31437;58.350;13.828;2023-02-12T05:55:44;102193.28;;;0.92;100.00
45525;BME280;31437;58.350;13.828;2023-02-12T05:58:09;102205.31;;;0.91;100.00
45525;BME280;31437;58.350;13.828;2023-02-12T06:00:34;102204.44;;;0.89;100.00
45525;BME280;31437;58.350;13.828;2023-02-12T06:03:00;102208.75;;;0.90;100.00
45525;BME280;31437;58.350;13.828;2023-02-12T06:05:25;102212.19;;;0.90;100.00
45525;BME280;31437;58.350;13.828;2023-02-12T06:07:50;102212.16;;;0.87;100.00
45525;BME280;31437;58.350;13.828;2023-02-12T06:10:16;102209.59;;;0.89;100.00
45525;BME280;31437;58.350;13.828;2023-02-12T06:12:41;102219.09;;;0.90;100.00
45525;BME280;31437;58.350;13.828;2023-02-12T06:15:06;102221.66;;;0.90;100.00
45525;BME280;31437;58.350;13.828;2023-02-12T06:17:32;102225.13;;;0.90;100.00
45525;BME280;31437;58.350;13.828;2023-02-12T06:19:58;102227.69;;;0.89;100.00
45525;BME280;31437;58.350;13.828;2023-02-12T06:22:23;102225.94;;;0.88;100.00
45525;BME280;31437;58.350;13.828;2023-02-12T06:24:48;102239.75;;;0.88;100.00
45525;BME280;31437;58.350;13.828;2023-02-12T06:27:13;102242.34;;;0.88;100.00
45525;BME280;31437;58.350;13.828;2023-02-12T06:29:39;102247.47;;;0.87;100.00
45525;BME280;31437;58.350;13.828;2023-02-12T06:32:04;102256.06;;;0.87;100.00
45525;BME280;31437;58.350;13.828;2023-02-12T06:34:32;102249.13;;;0.85;100.00
45525;BME280;31437;58.350;13.828;2023-02-12T06:36:57;102251.72;;;0.85;100.00
45525;BME280;31437;58.350;13.828;2023-02-12T06:39:22;102261.19;;;0.84;100.00
45525;BME280;31437;58.350;13.828;2023-02-12T06:41:48;102261.19;;;0.84;100.00
45525;BME280;31437;58.350;13.828;2023-02-12T06:44:14;102272.38;;;0.85;100.00
45525;BME280;31437;58.350;13.828;2023-02-12T06:46:39;102280.19;;;0.86;100.00
45525;BME280;31437;58.350;13.828;2023-02-12T06:49:05;102285.38;;;0.88;100.00
45525;BME280;31437;58.350;13.828;2023-02-12T06:51:30;102281.97;;;0.89;100.00
45525;BME280;31437;58.350;13.828;2023-02-12T06:53:56;102282.84;;;0.91;100.00
45525;BME280;31437;58.350;13.828;2023-02-12T06:56:22;102287.13;;;0.90;100.00
45525;BME280;31437;58.350;13.828;2023-02-12T06:58:53;102287.19;;;0.92;100.00
45525;BME280;31437;58.350;13.828;2023-02-12T07:01:20;102281.16;;;0.92;100.00
45525;BME280;31437;58.350;13.828;2023-02-12T07:03:55;102287.19;;;0.92;100.00
45525;BME280;31437;58.350;13.828;2023-02-12T07:06:21;102302.66;;;0.90;100.00
45525;BME280;31437;58.350;13.828;2023-02-12T07:08:47;102309.56;;;0.92;100.00
45525;BME280;31437;58.350;13.828;2023-02-12T07:11:12;102321.59;;;0.91;100.00
45525;BME280;31437;58.350;13.828;2023-02-12T07:13:39;102323.31;;;0.90;100.00
45525;BME280;31437;58.350;13.828;2023-02-12T07:16:05;102323.31;;;0.90;100.00
45525;BME280;31437;58.350;13.828;2023-02-12T07:18:32;102337.97;;;0.90;100.00
45525;BME280;31437;58.350;13.828;2023-02-12T07:20:57;102332.84;;;0.93;100.00
45525;BME280;31437;58.350;13.828;2023-02-12T07:23:22;102334.59;;;0.94;100.00
45525;BME280;31437;58.350;13.828;2023-02-12T07:25:58;102336.34;;;0.95;100.00
45525;BME280;31437;58.350;13.828;2023-02-12T07:28:23;102356.16;;;0.96;100.00
45525;BME280;31437;58.350;13.828;2023-02-12T07:30:49;102358.00;;;1.00;100.00
45525;BME280;31437;58.350;13.828;2023-02-12T07:33:14;102358.00;;;1.02;100.00
45525;BME280;31437;58.350;13.828;2023-02-12T07:35:40;102353.75;;;1.05;100.00
45525;BME280;31437;58.350;13.828;2023-02-12T07:38:05;102366.72;;;1.07;100.00
45525;BME280;31437;58.350;13.828;2023-02-12T07:40:30;102359.00;;;1.08;100.00
45525;BME280;31437;58.350;13.828;2023-02-12T07:42:55;102363.34;;;1.09;100.00
45525;BME280;31437;58.350;13.828;2023-02-12T07:45:21;102365.97;;;1.12;100.00
45525;BME280;31437;58.350;13.828;2023-02-12T07:47:46;102380.63;;;1.13;100.00
45525;BME280;31437;58.350;13.828;2023-02-12T07:50:11;102384.13;;;1.16;100.00
45525;BME280;31437;58.350;13.828;2023-02-12T07:52:37;102383.34;;;1.18;100.00
45525;BME280;31437;58.350;13.828;2023-02-12T07:55:02;102398.91;;;1.23;100.00
45525;BME280;31437;58.350;13.828;2023-02-12T07:57:27;102410.16;;;1.25;100.00
45525;BME280;31437;58.350;13.828;2023-02-12T07:59:52;102404.22;;;1.29;100.00
45525;BME280;31437;58.350;13.828;2023-02-12T08:02:18;102402.56;;;1.32;100.00
45525;BME280;31437;58.350;13.828;2023-02-12T08:04:43;102406.09;;;1.36;100.00
45525;BME280;31437;58.350;13.828;2023-02-12T08:07:08;102403.56;;;1.39;100.00
45525;BME280;31437;58.350;13.828;2023-02-12T08:09:34;102402.75;;;1.43;100.00
45525;BME280;31437;58.350;13.828;2023-02-12T08:11:59;102404.56;;;1.47;100.00
45525;BME280;31437;58.350;13.828;2023-02-12T08:14:25;102405.50;;;1.51;100.00
45525;BME280;31437;58.350;13.828;2023-02-12T08:16:51;102412.47;;;1.55;100.00
45525;BME280;31437;58.350;13.828;2023-02-12T08:19:17;102409.09;;;1.59;100.00
45525;BME280;31437;58.350;13.828;2023-02-12T08:21:42;102410.88;;;1.63;100.00
45525;BME280;31437;58.350;13.828;2023-02-12T08:24:08;102400.56;;;1.65;100.00
45525;BME280;31437;58.350;13.828;2023-02-12T08:26:34;102421.34;;;1.68;100.00
45525;BME280;31437;58.350;13.828;2023-02-12T08:31:27;102412.78;;;1.72;100.00
45525;BME280;31437;58.350;13.828;2023-02-12T08:33:53;102412.78;;;1.72;100.00
45525;BME280;31437;58.350;13.828;2023-02-12T08:36:22;102407.59;;;1.73;100.00
45525;BME280;31437;58.350;13.828;2023-02-12T08:38:48;102411.97;;;1.76;100.00
45525;BME280;31437;58.350;13.828;2023-02-12T08:41:32;102415.50;;;1.79;100.00
45525;BME280;31437;58.350;13.828;2023-02-12T08:43:58;102422.53;;;1.87;100.00
45525;BME280;31437;58.350;13.828;2023-02-12T08:46:25;102418.31;;;1.92;100.00
45525;BME280;31437;58.350;13.828;2023-02-12T08:48:53;102433.06;;;1.97;100.00
45525;BME280;31437;58.350;13.828;2023-02-12T08:51:21;102447.84;;;2.04;100.00
45525;BME280;31437;58.350;13.828;2023-02-12T08:53:47;102453.94;;;2.08;100.00
45525;BME280;31437;58.350;13.828;2023-02-12T08:56:14;102468.72;;;2.14;100.00
45525;BME280;31437;58.350;13.828;2023-02-12T08:58:40;102475.72;;;2.19;100.00
45525;BME280;31437;58.350;13.828;2023-02-12T09:01:14;102485.28;;;2.23;100.00
45525;BME280;31437;58.350;13.828;2023-02-12T09:03:40;102504.41;;;2.30;100.00
45525;BME280;31437;58.350;13.828;2023-02-12T09:06:06;102495.84;;;2.36;100.00
45525;BME280;31437;58.350;13.828;2023-02-12T09:08:32;102501.97;;;2.39;100.00
45525;BME280;31437;58.350;13.828;2023-02-12T09:10:57;102508.97;;;2.45;100.00
45525;BME280;31437;58.350;13.828;2023-02-12T09:13:23;102514.19;;;2.49;100.00
45525;BME280;31437;58.350;13.828;2023-02-12T09:15:48;102517.78;;;2.58;100.00
45525;BME280;31437;58.350;13.828;2023-02-12T09:18:13;102510.94;;;2.61;100.00
45525;BME280;31437;58.350;13.828;2023-02-12T09:20:40;102519.69;;;2.68;100.00
45525;BME280;31437;58.350;13.828;2023-02-12T09:23:06;102531.84;;;2.73;100.00
45525;BME280;31437;58.350;13.828;2023-02-12T09:25:31;102540.56;;;2.77;100.00
45525;BME280;31437;58.350;13.828;2023-02-12T09:28:00;102539.75;;;2.81;100.00
45525;BME280;31437;58.350;13.828;2023-02-12T09:30:26;102539.84;;;2.87;100.00
45525;BME280;31437;58.350;13.828;2023-02-12T09:32:51;102541.66;;;2.91;100.00
45525;BME280;31437;58.350;13.828;2023-02-12T09:35:16;102539.97;;;2.96;100.00
45525;BME280;31437;58.350;13.828;2023-02-12T09:37:43;102544.44;;;3.04;100.00
45525;BME280;31437;58.350;13.828;2023-02-12T09:40:09;102546.19;;;3.08;100.00
45525;BME280;31437;58.350;13.828;2023-02-12T09:42:59;102553.25;;;3.16;100.00
45525;BME280;31437;58.350;13.828;2023-02-12T09:45:29;102538.63;;;3.23;100.00
45525;BME280;31437;58.350;13.828;2023-02-12T09:53:07;102545.81;;;3.42;100.00
45525;BME280;31437;58.350;13.828;2023-02-12T09:55:35;102537.22;;;3.50;100.00
45525;BME280;31437;58.350;13.828;2023-02-12T09:58:01;102529.53;;;3.54;100.00
45525;BME280;31437;58.350;13.828;2023-02-12T10:00:28;102527.91;;;3.62;100.00
45525;BME280;31437;58.350;13.828;2023-02-12T10:02:55;102534.03;;;3.69;100.00
45525;BME280;31437;58.350;13.828;2023-02-12T10:05:23;102540.97;;;3.73;100.00
45525;BME280;31437;58.350;13.828;2023-02-12T10:10:21;102546.31;;;3.82;100.00
45525;BME280;31437;58.350;13.828;2023-02-12T10:12:54;102542.91;;;3.90;100.00
45525;BME280;31437;58.350;13.828;2023-02-12T10:23:38;102517.13;;;4.08;100.00
45525;BME280;31437;58.350;13.828;2023-02-12T10:26:12;102516.31;;;4.14;100.00
45525;BME280;31437;58.350;13.828;2023-02-12T10:28:42;102512.94;;;4.21;100.00
45525;BME280;31437;58.350;13.828;2023-02-12T10:34:14;102497.44;;;4.33;100.00
45525;BME280;31437;58.350;13.828;2023-02-12T10:36:42;102492.31;;;4.42;100.00
45525;BME280;31437;58.350;13.828;2023-02-12T10:41:34;102477.69;;;4.57;100.00
45525;BME280;31437;58.350;13.828;2023-02-12T10:44:01;102475.97;;;4.59;100.00
45525;BME280;31437;58.350;13.828;2023-02-12T10:46:27;102466.50;;;4.65;100.00
45525;BME280;31437;58.350;13.828;2023-02-12T10:48:54;102468.25;;;4.68;100.00
45525;BME280;31437;58.350;13.828;2023-02-12T10:56:50;102457.94;;;4.86;100.00
45525;BME280;31437;58.350;13.828;2023-02-12T10:59:24;102457.13;;;4.92;100.00
45525;BME280;31437;58.350;13.828;2023-02-12T11:01:50;102447.63;;;5.00;100.00
45525;BME280;31437;58.350;13.828;2023-02-12T11:04:19;102444.16;;;5.04;100.00
45525;BME280;31437;58.350;13.828;2023-02-12T11:06:58;102429.44;;;5.09;100.00
45525;BME280;31437;58.350;13.828;2023-02-12T11:09:29;102412.94;;;5.09;100.00
45525;BME280;31437;58.350;13.828;2023-02-12T11:11:55;102406.91;;;5.13;100.00
45525;BME280;31437;58.350;13.828;2023-02-12T11:14:20;102401.72;;;5.16;100.00
45525;BME280;31437;58.350;13.828;2023-02-12T11:16:56;102396.50;;;5.14;100.00
45525;BME280;31437;58.350;13.828;2023-02-12T11:19:23;102396.50;;;5.16;100.00
45525;BME280;31437;58.350;13.828;2023-02-12T11:21:49;102380.00;;;5.11;100.00
45525;BME280;31437;58.350;13.828;2023-02-12T11:24:28;102384.38;;;5.12;100.00
45525;BME280;31437;58.350;13.828;2023-02-12T11:27:10;102373.94;;;5.10;100.00
45525;BME280;31437;58.350;13.828;2023-02-12T11:29:37;102360.06;;;5.11;100.00
45525;BME280;31437;58.350;13.828;2023-02-12T11:32:04;102347.94;;;5.12;100.00
45525;BME280;31437;58.350;13.828;2023-02-12T11:34:32;102334.91;;;5.10;100.00
45525;BME280;31437;58.350;13.828;2023-02-12T11:36:59;102321.03;;;5.11;100.00
45525;BME280;31437;58.350;13.828;2023-02-12T11:39:30;102313.25;;;5.13;100.00
45525;BME280;31437;58.350;13.828;2023-02-12T11:41:58;102318.47;;;5.22;100.00
45525;BME280;31437;58.350;13.828;2023-02-12T11:44:29;102307.19;;;5.24;100.00
45525;BME280;31437;58.350;13.828;2023-02-12T11:47:03;102295.94;;;5.27;100.00
45525;BME280;31437;58.350;13.828;2023-02-12T11:49:39;102295.91;;;5.26;100.00
45525;BME280;31437;58.350;13.828;2023-02-12T11:52:05;102292.44;;;5.28;100.00
45525;BME280;31437;58.350;13.828;2023-02-12T11:54:37;102275.97;;;5.31;100.00
45525;BME280;31437;58.350;13.828;2023-02-12T11:57:04;102262.09;;;5.33;100.00
45525;BME280;31437;58.350;13.828;2023-02-12T12:01:55;102268.16;;;5.40;100.00
45525;BME280;31437;58.350;13.828;2023-02-12T12:04:23;102261.22;;;5.46;100.00
45525;BME280;31437;58.350;13.828;2023-02-12T12:06:51;102251.69;;;5.49;100.00
45525;BME280;31437;58.350;13.828;2023-02-12T12:09:27;102243.00;;;5.51;100.00
45525;BME280;31437;58.350;13.828;2023-02-12T12:12:03;102229.13;;;5.52;100.00
45525;BME280;31437;58.350;13.828;2023-02-12T12:14:38;102227.38;;;5.54;100.00
45525;BME280;31437;58.350;13.828;2023-02-12T12:17:33;102203.94;;;5.57;100.00
45525;BME280;31437;58.350;13.828;2023-02-12T12:20:21;102193.53;;;5.57;100.00
45525;BME280;31437;58.350;13.828;2023-02-12T12:22:49;102177.06;;;5.57;100.00
45525;BME280;31437;58.350;13.828;2023-02-12T12:25:28;102164.91;;;5.57;100.00
45525;BME280;31437;58.350;13.828;2023-02-12T12:27:59;102159.69;;;5.60;100.00
45525;BME280;31437;58.350;13.828;2023-02-12T12:33:02;102137.09;;;5.67;100.00
45525;BME280;31437;58.350;13.828;2023-02-12T12:35:42;102144.91;;;5.67;100.00
45525;BME280;31437;58.350;13.828;2023-02-12T12:41:00;102127.56;;;5.66;100.00
45525;BME280;31437;58.350;13.828;2023-02-12T12:51:29;102111.94;;;5.63;100.00
45525;BME280;31437;58.350;13.828;2023-02-12T12:54:40;102104.09;;;5.67;100.00
45525;BME280;31437;58.350;13.828;2023-02-12T12:56:52;102086.75;;;5.66;100.00
45525;BME280;31437;58.350;13.828;2023-02-12T12:59:46;102081.56;;;5.65;100.00
45525;BME280;31437;58.350;13.828;2023-02-12T13:04:54;102072.88;;;5.64;100.00
45525;BME280;31437;58.350;13.828;2023-02-12T13:07:30;102067.66;;;5.64;100.00
45525;BME280;31437;58.350;13.828;2023-02-12T13:12:55;102055.53;;;5.62;100.00
45525;BME280;31437;58.350;13.828;2023-02-12T13:23:36;102044.25;;;5.63;100.00
45525;BME280;31437;58.350;13.828;2023-02-12T13:26:02;102043.38;;;5.62;100.00
45525;BME280;31437;58.350;13.828;2023-02-12T13:28:36;102048.59;;;5.65;100.00
45525;BME280;31437;58.350;13.828;2023-02-12T13:31:03;102033.78;;;5.67;100.00
45525;BME280;31437;58.350;13.828;2023-02-12T13:33:40;102032.06;;;5.69;100.00
45525;BME280;31437;58.350;13.828;2023-02-12T13:36:09;102032.06;;;5.71;100.00
45525;BME280;31437;58.350;13.828;2023-02-12T13:38:37;102032.91;;;5.70;100.00
45525;BME280;31437;58.350;13.828;2023-02-12T13:41:05;102024.22;;;5.73;100.00
45525;BME280;31437;58.350;13.828;2023-02-12T13:46:22;102015.53;;;5.75;100.00
45525;BME280;31437;58.350;13.828;2023-02-12T13:56:46;101994.66;;;5.81;100.00
45525;BME280;31437;58.350;13.828;2023-02-12T14:02:03;101980.78;;;5.81;100.00
45525;BME280;31437;58.350;13.828;2023-02-12T14:04:33;101973.84;;;5.78;100.00
45525;BME280;31437;58.350;13.828;2023-02-12T14:07:03;101979.94;;;5.76;100.00
45525;BME280;31437;58.350;13.828;2023-02-12T14:11:56;101975.63;;;5.75;100.00
45525;BME280;31437;58.350;13.828;2023-02-12T14:14:46;101973.91;;;5.72;100.00
45525;BME280;31437;58.350;13.828;2023-02-12T14:27:53;101975.66;;;5.67;100.00
45525;BME280;31437;58.350;13.828;2023-02-12T14:30:27;101967.00;;;5.65;100.00
45525;BME280;31437;58.350;13.828;2023-02-12T14:35:32;101954.88;;;5.59;100.00
45525;BME280;31437;58.350;13.828;2023-02-12T14:38:02;101940.13;;;5.57;100.00
45525;BME280;31437;58.350;13.828;2023-02-12T14:43:01;101956.63;;;5.54;100.00
45525;BME280;31437;58.350;13.828;2023-02-12T14:45:31;101955.78;;;5.52;100.00
45525;BME280;31437;58.350;13.828;2023-02-12T14:47:58;101947.13;;;5.49;100.00
45525;BME280;31437;58.350;13.828;2023-02-12T14:50:24;101940.19;;;5.46;100.00
45525;BME280;31437;58.350;13.828;2023-02-12T14:52:52;101940.22;;;5.44;100.00
45525;BME280;31437;58.350;13.828;2023-02-12T14:55:19;101935.88;;;5.40;100.00